Time;durP1;ratioP1;P1;durP2;ratioP2;P2;SDS_P1;SDS_P2;PMS_P1;PMS_P2;Temp;Humidity;BMP_temperature;BMP_pressure;BME280_temperature;BME280_humidity;BME280_pressure;Samples;Min_cycle;Max_cycle;Signal;HPM_P1;HPM_P2
2022/12/30 00:04:13;;;;;;;15.88;3.10;;;;;;;6.16;63.41;99527.47;10340449;28;20053;-59
2022/12/30 00:09:15;;;;;;;15.90;3.20;;;;;;;6.14;63.47;99544.03;10339297;28;20058;-60
2022/12/30 00:35:39;;;;;;;11.95;2.72;;;;;;;5.99;63.64;99599.25;10339296;28;20058;-59
2022/12/30 00:43:07;;;;;;;17.27;2.83;;;;;;;5.91;63.83;99604.78;10338701;28;20042;-59
2022/12/30 00:46:03;;;;;;;16.75;2.65;;;;;;;5.89;63.82;99611.81;10340430;28;20550;-59
2022/12/30 00:56:25;;;;;;;13.07;2.92;;;;;;;5.86;63.83;99617.13;10339922;28;20552;-59
2022/12/30 01:01:26;;;;;;;16.80;3.28;;;;;;;5.77;63.80;99622.75;10340137;28;20065;-58
2022/12/30 01:06:28;;;;;;;12.70;2.72;;;;;;;5.72;63.87;99614.31;10340753;28;20510;-59
2022/12/30 01:11:30;;;;;;;15.48;3.05;;;;;;;5.64;64.03;99606.03;10346174;28;20048;-58
2022/12/30 01:16:31;;;;;;;19.13;3.15;;;;;;;5.51;64.34;99617.88;10345257;28;20827;-58
2022/12/30 01:21:34;;;;;;;15.68;3.08;;;;;;;5.44;64.49;99624.22;10347328;28;20130;-60
2022/12/30 01:26:39;;;;;;;19.58;3.75;;;;;;;5.39;64.46;99631.38;10347305;28;20347;-60
2022/12/30 01:31:40;;;;;;;18.38;3.53;;;;;;;5.35;64.32;99654.00;10347147;28;20052;-60
2022/12/30 01:36:42;;;;;;;14.23;3.13;;;;;;;5.12;64.50;99653.28;10345327;28;20052;-60
2022/12/30 01:41:44;;;;;;;14.38;2.67;;;;;;;5.06;64.75;99658.72;10348343;28;20096;-60
2022/12/30 01:46:46;;;;;;;19.13;3.00;;;;;;;4.99;64.95;99650.38;10343895;28;20081;-60
2022/12/30 01:51:47;;;;;;;16.25;3.10;;;;;;;5.02;64.93;99657.19;10336988;28;20053;-59
2022/12/30 01:56:49;;;;;;;11.93;3.08;;;;;;;4.97;65.02;99665.13;10334999;28;20042;-60
2022/12/30 02:01:51;;;;;;;16.20;2.75;;;;;;;4.87;65.06;99679.38;10340737;28;20056;-60
2022/12/30 02:07:20;;;;;;;19.45;3.08;;;;;;;4.76;65.14;99672.94;10327142;28;21214;-60
2022/12/30 02:12:22;;;;;;;15.65;3.20;;;;;;;4.56;65.23;99673.72;10339515;28;20050;-60
2022/12/30 02:17:27;;;;;;;14.35;2.97;;;;;;;4.39;65.73;99673.56;10341248;28;20050;-60
2022/12/30 02:22:46;;;;;;;15.13;2.60;;;;;;;4.13;66.84;99678.88;10339494;28;20056;-60
2022/12/30 02:28:07;;;;;;;21.10;2.97;;;;;;;4.13;66.45;99684.06;10343812;28;20522;-61
2022/12/30 02:33:30;;;;;;;14.30;2.53;;;;;;;4.15;66.26;99685.66;10343308;28;20528;-60
2022/12/30 02:38:46;;;;;;;20.10;3.25;;;;;;;4.14;66.54;99691.75;10342516;28;20045;-60
2022/12/30 02:49:14;;;;;;;13.52;2.90;;;;;;;4.19;66.21;99691.59;10341346;28;20052;-60
2022/12/30 02:54:16;;;;;;;16.63;2.95;;;;;;;4.01;66.38;99700.00;10341453;28;20054;-60
2022/12/30 03:05:07;;;;;;;10.73;3.00;;;;;;;3.83;66.83;99698.91;10347463;28;20436;-60
2022/12/30 03:16:07;;;;;;;22.63;3.33;;;;;;;3.70;67.13;99693.34;10355128;28;20046;-59
2022/12/30 03:21:13;;;;;;;11.20;2.80;;;;;;;3.78;66.82;99696.50;10350117;28;20486;-60
2022/12/30 03:31:36;;;;;;;18.20;3.50;;;;;;;4.00;66.50;99701.78;10349282;28;20391;-59
2022/12/30 03:36:43;;;;;;;15.05;2.90;;;;;;;4.04;66.48;99700.78;10349728;28;20054;-59
2022/12/30 03:41:49;;;;;;;19.20;3.00;;;;;;;3.96;66.62;99709.72;10350857;28;20052;-59
2022/12/30 03:46:51;;;;;;;20.15;3.47;;;;;;;4.03;66.79;99730.13;10346670;28;20079;-59
2022/12/30 03:51:53;;;;;;;14.57;3.20;;;;;;;3.98;66.56;99726.88;10345879;28;20050;-59
2022/12/30 03:56:55;;;;;;;22.30;3.30;;;;;;;4.05;66.48;99722.31;10377474;28;20057;-60
2022/12/30 04:01:56;;;;;;;21.00;3.60;;;;;;;4.09;66.34;99709.19;10330650;28;20049;-60
2022/12/30 04:06:58;;;;;;;13.52;2.80;;;;;;;4.16;66.30;99730.53;10341658;28;20068;-60
2022/12/30 04:12:00;;;;;;;15.68;3.65;;;;;;;4.22;66.18;99731.16;10342314;28;20607;-60
2022/12/30 04:17:02;;;;;;;16.48;3.38;;;;;;;4.19;66.19;99731.25;10342446;28;20054;-60
2022/12/30 04:22:04;;;;;;;15.50;3.63;;;;;;;4.37;65.99;99733.13;10342443;28;20053;-60
2022/12/30 04:27:05;;;;;;;18.73;3.17;;;;;;;4.56;65.71;99710.84;10338944;28;20491;-59
2022/12/30 04:32:07;;;;;;;14.40;3.03;;;;;;;4.61;65.46;99695.97;10342504;28;20481;-59
2022/12/30 04:37:09;;;;;;;16.98;3.20;;;;;;;4.37;65.77;99703.84;10338222;28;20053;-60
2022/12/30 04:42:10;;;;;;;18.05;3.42;;;;;;;4.34;66.00;99728.09;10340294;28;20038;-59
2022/12/30 04:47:12;;;;;;;16.42;3.30;;;;;;;4.29;66.19;99724.81;10340935;28;20057;-60
2022/12/30 04:52:13;;;;;;;15.93;3.28;;;;;;;4.38;66.03;99716.72;10341389;28;20060;-59
2022/12/30 04:57:15;;;;;;;18.15;3.75;;;;;;;4.46;66.01;99725.03;10341209;28;20065;-59
2022/12/30 05:02:17;;;;;;;15.45;2.95;;;;;;;4.50;66.14;99725.75;10337504;28;20050;-60
2022/12/30 05:07:19;;;;;;;15.48;2.63;;;;;;;4.67;66.14;99732.00;10338817;28;20062;-60
2022/12/30 05:12:20;;;;;;;12.95;2.70;;;;;;;4.89;66.11;99718.16;10339742;28;20045;-60
2022/12/30 05:17:22;;;;;;;14.40;2.53;;;;;;;5.15;65.65;99712.78;10338347;28;20541;-59
2022/12/30 05:22:24;;;;;;;17.83;3.08;;;;;;;5.22;65.37;99716.81;10339672;28;20212;-61
2022/12/30 05:27:25;;;;;;;16.23;2.90;;;;;;;5.21;65.50;99722.88;10339800;28;20054;-61
2022/12/30 05:32:27;;;;;;;13.98;2.70;;;;;;;5.21;65.37;99723.75;10341676;28;20049;-60
2022/12/30 05:37:29;;;;;;;15.65;3.10;;;;;;;4.99;65.10;99720.34;10338486;28;20391;-61
2022/12/30 05:42:31;;;;;;;15.05;3.25;;;;;;;4.70;65.22;99737.03;10341103;28;20414;-60
2022/12/30 05:47:33;;;;;;;15.40;3.05;;;;;;;4.44;65.91;99742.38;10339882;28;20045;-61
2022/12/30 05:52:34;;;;;;;18.23;3.38;;;;;;;4.35;66.08;99742.72;10345979;28;20048;-61
2022/12/30 05:57:36;;;;;;;16.75;3.88;;;;;;;4.49;65.93;99756.00;10343116;28;20502;-60
2022/12/30 06:02:37;;;;;;;14.52;3.50;;;;;;;4.44;66.24;99747.56;10346896;28;20046;-61
2022/12/30 06:07:41;;;;;;;16.15;3.95;;;;;;;4.63;66.16;99743.38;10343991;28;20463;-61
2022/12/30 06:12:43;;;;;;;19.25;3.53;;;;;;;4.62;65.97;99749.44;10345105;28;20054;-60
2022/12/30 06:17:47;;;;;;;19.75;4.05;;;;;;;4.81;65.81;99743.53;10344776;28;20060;-61
2022/12/30 06:22:49;;;;;;;15.55;4.00;;;;;;;4.91;65.65;99732.75;10349248;28;20057;-60
2022/12/30 06:27:50;;;;;;;13.85;3.78;;;;;;;4.88;65.35;99732.06;10347495;28;20054;-60
2022/12/30 06:32:56;;;;;;;19.55;3.75;;;;;;;4.85;65.77;99737.34;10347627;28;20056;-60
2022/12/30 06:37:58;;;;;;;17.40;3.55;;;;;;;5.01;65.44;99741.84;10345150;28;20501;-60
2022/12/30 06:42:59;;;;;;;18.33;3.65;;;;;;;5.10;65.19;99745.81;10345834;28;20200;-60
2022/12/30 06:48:01;;;;;;;13.80;3.47;;;;;;;5.10;65.13;99745.81;10345783;28;20054;-60
2022/12/30 06:53:03;;;;;;;16.27;3.08;;;;;;;5.10;65.14;99743.25;10347656;28;20046;-60
2022/12/30 06:58:06;;;;;;;13.38;3.47;;;;;;;5.17;65.40;99734.28;10344853;28;20109;-60
2022/12/30 07:03:10;;;;;;;11.50;3.42;;;;;;;5.24;65.32;99725.38;10342564;28;20056;-60
2022/12/30 07:08:12;;;;;;;20.00;4.40;;;;;;;5.36;65.06;99719.66;10360967;28;20058;-60
2022/12/30 07:13:13;;;;;;;15.05;3.33;;;;;;;5.52;64.75;99726.75;10341833;28;20053;-60
2022/12/30 07:18:15;;;;;;;16.45;3.25;;;;;;;5.52;64.56;99710.34;10345466;28;20058;-60
2022/12/30 07:23:17;;;;;;;17.80;3.58;;;;;;;5.44;64.87;99720.19;10341598;28;20048;-61
2022/12/30 07:28:18;;;;;;;13.32;3.10;;;;;;;5.40;65.13;99710.84;10343863;28;20050;-60
2022/12/30 07:33:20;;;;;;;18.60;3.95;;;;;;;5.44;65.25;99705.47;10345294;28;20046;-60
2022/12/30 07:38:21;;;;;;;16.13;3.70;;;;;;;5.60;65.06;99703.06;10341031;28;20042;-61
2022/12/30 07:43:23;;;;;;;16.65;3.22;;;;;;;5.79;65.19;99714.34;10335988;28;20053;-60
2022/12/30 07:48:25;;;;;;;17.55;4.82;;;;;;;5.92;65.08;99707.69;10338109;28;20109;-60
2022/12/30 07:53:26;;;;;;;15.35;3.75;;;;;;;6.04;65.29;99709.72;10339005;28;20362;-60
2022/12/30 07:58:28;;;;;;;14.73;4.03;;;;;;;6.18;65.03;99712.56;10337901;28;20056;-60
2022/12/30 08:03:30;;;;;;;13.55;4.80;;;;;;;6.28;64.97;99710.44;10336646;28;20490;-61
2022/12/30 08:08:33;;;;;;;12.82;3.42;;;;;;;6.40;64.90;99685.63;10335310;28;20261;-61
2022/12/30 08:13:37;;;;;;;18.83;5.13;;;;;;;6.61;64.83;99680.28;10333146;28;20046;-61
2022/12/30 08:18:38;;;;;;;12.38;3.20;;;;;;;6.58;64.62;99663.97;10340083;28;20061;-60
2022/12/30 08:23:44;;;;;;;11.52;3.15;;;;;;;6.69;64.39;99656.53;10337471;28;20053;-61
2022/12/30 08:28:46;;;;;;;9.27;2.50;;;;;;;6.87;63.82;99660.84;10340720;28;20045;-60
2022/12/30 08:33:48;;;;;;;13.35;2.78;;;;;;;6.98;63.28;99656.78;10334691;28;20061;-60
2022/12/30 08:38:52;;;;;;;10.00;2.72;;;;;;;7.18;63.06;99661.81;10339470;28;20058;-60
2022/12/30 08:43:57;;;;;;;9.65;2.40;;;;;;;7.34;62.53;99643.72;10340307;28;20046;-60
2022/12/30 08:48:59;;;;;;;10.90;2.20;;;;;;;7.51;62.47;99633.25;10339362;28;20372;-60
2022/12/30 08:54:01;;;;;;;9.98;2.40;;;;;;;7.55;62.13;99629.56;10334239;28;20402;-60
2022/12/30 08:59:03;;;;;;;8.00;2.22;;;;;;;7.72;61.53;99639.09;10338354;28;20049;-60
2022/12/30 09:04:08;;;;;;;11.15;2.38;;;;;;;7.74;61.24;99632.91;10338930;28;20074;-60
2022/12/30 09:09:12;;;;;;;9.30;2.28;;;;;;;7.62;60.90;99624.88;10332034;28;20046;-60
2022/12/30 09:14:16;;;;;;;9.25;2.35;;;;;;;7.75;60.78;99618.94;10334266;28;20054;-61
2022/12/30 09:19:17;;;;;;;11.13;2.30;;;;;;;7.86;60.49;99603.59;10338357;28;20072;-61
2022/12/30 09:24:22;;;;;;;7.90;2.15;;;;;;;8.05;59.79;99582.63;10333606;28;20136;-60
2022/12/30 09:29:23;;;;;;;10.32;2.47;;;;;;;8.23;59.51;99566.00;10344871;28;20781;-60
2022/12/30 09:34:25;;;;;;;8.00;2.15;;;;;;;8.29;59.53;99568.28;10345197;28;20057;-61
2022/12/30 09:39:35;;;;;;;7.20;2.38;;;;;;;8.24;59.27;99557.25;10344100;28;20042;-60
2022/12/30 09:44:43;;;;;;;12.88;2.78;;;;;;;8.45;58.95;99555.19;10343230;28;20058;-60
2022/12/30 09:49:50;;;;;;;9.80;2.47;;;;;;;8.58;58.92;99554.44;10345575;28;20068;-60
2022/12/30 09:54:57;;;;;;;12.75;2.28;;;;;;;8.82;58.30;99539.13;10337277;28;20064;-60
2022/12/30 10:00:20;;;;;;;8.75;2.22;;;;;;;8.73;56.89;99529.22;10337556;28;20522;-60
2022/12/30 10:05:49;;;;;;;11.00;2.13;;;;;;;8.77;57.74;99533.34;10340189;28;20053;-60
2022/12/30 10:11:26;;;;;;;8.35;1.90;;;;;;;8.65;56.49;99505.38;10338386;28;20480;-60
2022/12/30 10:16:52;;;;;;;6.75;1.98;;;;;;;8.54;56.47;99495.59;10341850;28;20049;-61
2022/12/30 10:22:01;;;;;;;9.85;2.22;;;;;;;8.61;57.24;99486.47;10344334;28;20589;-60
2022/12/30 10:27:20;;;;;;;7.88;2.10;;;;;;;8.73;56.74;99484.91;10340695;28;20054;-60
2022/12/30 10:32:26;;;;;;;7.40;1.88;;;;;;;8.74;56.75;99468.34;10342840;28;20502;-60
2022/12/30 10:37:33;;;;;;;8.35;2.00;;;;;;;8.83;56.87;99465.19;10332156;28;20145;-60
2022/12/30 10:43:10;;;;;;;8.65;2.03;;;;;;;8.59;56.56;99451.00;10342218;28;20221;-60
2022/12/30 10:48:34;;;;;;;9.55;2.42;;;;;;;8.74;56.10;99443.13;10342105;28;20057;-60
2022/12/30 10:53:36;;;;;;;11.25;2.10;;;;;;;9.00;56.76;99427.66;10343041;28;20056;-60
2022/12/30 10:58:47;;;;;;;6.53;1.90;;;;;;;8.91;56.55;99399.53;10341286;28;20411;-60
2022/12/30 11:03:53;;;;;;;8.52;1.85;;;;;;;8.85;56.88;99392.94;10342567;28;20446;-60
2022/12/30 11:09:13;;;;;;;6.85;1.80;;;;;;;8.84;56.31;99427.75;10343848;28;20057;-60
2022/12/30 11:14:43;;;;;;;8.55;1.83;;;;;;;8.79;56.94;99424.59;10335269;28;20046;-61
2022/12/30 11:19:59;;;;;;;8.15;1.70;;;;;;;8.92;56.24;99415.09;10342166;28;20483;-60
2022/12/30 11:25:14;;;;;;;6.68;1.63;;;;;;;9.03;56.58;99375.31;10340375;28;20049;-60
2022/12/30 11:30:39;;;;;;;7.60;2.03;;;;;;;9.16;56.27;99369.22;10342760;28;20502;-60
2022/12/30 11:35:48;;;;;;;7.00;1.90;;;;;;;9.10;56.06;99382.63;10341219;28;20137;-60
2022/12/30 11:40:49;;;;;;;6.97;1.77;;;;;;;8.88;56.85;99369.25;10340147;28;20149;-60
2022/12/30 11:45:54;;;;;;;8.10;1.75;;;;;;;8.92;56.94;99357.72;10335331;28;20056;-60
2022/12/30 11:50:57;;;;;;;10.25;2.45;;;;;;;8.97;56.53;99355.66;10337588;28;20049;-60
2022/12/30 11:55:59;;;;;;;12.25;2.50;;;;;;;9.01;56.59;99335.44;10334719;28;20046;-60
2022/12/30 12:01:05;;;;;;;8.73;2.10;;;;;;;8.82;56.42;99340.97;10338930;28;20065;-60
2022/12/30 12:06:09;;;;;;;9.35;2.20;;;;;;;8.62;57.36;99316.13;10343258;28;20060;-60
2022/12/30 12:11:19;;;;;;;9.85;2.22;;;;;;;8.47;57.77;99309.22;10339886;28;20061;-60
2022/12/30 12:16:44;;;;;;;6.57;2.10;;;;;;;8.29;58.08;99279.09;10338477;28;20060;-60
2022/12/30 12:21:49;;;;;;;7.80;2.40;;;;;;;8.35;58.16;99277.88;10329742;28;20052;-61
2022/12/30 12:27:02;;;;;;;9.05;2.22;;;;;;;8.33;58.07;99264.09;10333030;28;20052;-60
2022/12/30 12:32:23;;;;;;;7.25;2.22;;;;;;;8.24;58.07;99251.66;10331471;28;20650;-60
2022/12/30 12:38:15;;;;;;;8.60;2.17;;;;;;;8.18;58.49;99234.59;10335963;28;20053;-60
2022/12/30 12:43:59;;;;;;;7.47;2.17;;;;;;;8.11;59.02;99225.50;10336982;28;20049;-60
2022/12/30 12:49:19;;;;;;;8.63;2.70;;;;;;;8.14;58.86;99216.69;10335465;28;20057;-60
2022/12/30 12:54:44;;;;;;;6.80;2.58;;;;;;;8.09;58.84;99208.25;10341956;28;20054;-60
2022/12/30 13:00:07;;;;;;;8.57;2.30;;;;;;;8.14;58.82;99177.63;10339586;28;20053;-60
2022/12/30 13:05:54;;;;;;;7.93;2.25;;;;;;;8.08;58.75;99170.16;10346678;28;20417;-61
2022/12/30 13:11:11;;;;;;;5.32;1.70;;;;;;;8.14;58.91;99143.75;10359690;28;20429;-61
2022/12/30 13:16:39;;;;;;;5.95;2.05;;;;;;;8.20;58.74;99128.56;10334934;28;20391;-60
2022/12/30 13:21:44;;;;;;;5.60;2.13;;;;;;;8.25;58.59;99131.72;10340856;28;20050;-60
2022/12/30 13:26:46;;;;;;;4.68;1.55;;;;;;;8.15;58.81;99124.59;10346180;28;20050;-60
2022/12/30 13:32:07;;;;;;;4.82;1.70;;;;;;;8.08;59.11;99120.66;10342788;28;20383;-60
2022/12/30 13:37:15;;;;;;;4.65;1.88;;;;;;;7.99;59.24;99104.69;10344414;28;20560;-60
2022/12/30 13:42:49;;;;;;;7.70;2.00;;;;;;;7.97;58.93;99096.13;10340180;28;20485;-60
2022/12/30 13:48:14;;;;;;;6.07;1.60;;;;;;;8.06;59.03;99086.88;10344982;28;20054;-59
2022/12/30 13:53:37;;;;;;;5.45;2.10;;;;;;;8.07;59.02;99066.91;10343808;28;20595;-60
2022/12/30 13:58:50;;;;;;;4.43;1.80;;;;;;;8.06;59.85;99052.22;10339746;28;20053;-60
2022/12/30 14:04:12;;;;;;;5.05;1.83;;;;;;;7.87;60.85;99047.34;10343237;28;20242;-60
2022/12/30 14:09:24;;;;;;;6.32;2.30;;;;;;;7.94;60.77;99051.22;10338068;28;20053;-60
2022/12/30 14:14:26;;;;;;;5.53;2.10;;;;;;;8.04;60.63;99034.91;10341667;28;20483;-60
2022/12/30 14:19:46;;;;;;;4.60;1.70;;;;;;;8.04;61.14;99029.72;10340577;28;20545;-60
2022/12/30 14:24:48;;;;;;;6.07;2.10;;;;;;;7.99;61.73;99025.72;10345427;28;20053;-61
2022/12/30 14:30:17;;;;;;;5.43;2.28;;;;;;;7.92;62.77;99014.03;10330492;28;20053;-60
2022/12/30 14:35:19;;;;;;;6.07;2.17;;;;;;;7.87;62.56;99009.13;10342899;28;20340;-60
2022/12/30 14:40:31;;;;;;;4.20;1.90;;;;;;;7.69;63.60;99002.47;10345443;28;20065;-61
2022/12/30 14:45:33;;;;;;;7.03;2.55;;;;;;;7.71;63.35;98991.97;10341818;28;20486;-60
2022/12/30 14:50:35;;;;;;;4.65;1.90;;;;;;;7.72;64.01;98981.47;10339054;28;20065;-60
2022/12/30 14:55:45;;;;;;;4.85;1.90;;;;;;;7.74;64.23;98971.78;10344882;28;20050;-60
2022/12/30 15:00:49;;;;;;;8.03;2.10;;;;;;;7.64;64.10;98962.88;10344875;28;20060;-60
2022/12/30 15:05:55;;;;;;;6.05;2.30;;;;;;;7.65;63.80;98933.31;10346519;28;20143;-60
2022/12/30 15:11:01;;;;;;;5.65;2.05;;;;;;;7.72;64.00;98934.63;10345590;28;20335;-60
2022/12/30 15:16:08;;;;;;;3.90;1.88;;;;;;;7.67;64.53;98928.84;10346911;28;20516;-60
2022/12/30 15:21:19;;;;;;;5.85;1.92;;;;;;;7.76;64.32;98910.06;10346914;28;20049;-61
2022/12/30 15:26:20;;;;;;;4.75;2.10;;;;;;;7.75;64.33;98928.38;10344869;28;20396;-61
2022/12/30 15:31:25;;;;;;;4.60;1.98;;;;;;;7.81;64.33;98922.78;10346179;28;20042;-61
2022/12/30 15:36:29;;;;;;;4.80;2.03;;;;;;;7.86;64.38;98905.94;10346295;28;20069;-61
2022/12/30 15:41:36;;;;;;;51.40;30.90;;;;;;;7.92;64.57;98915.94;10345710;28;20050;-61
2022/12/30 15:46:51;;;;;;;12.23;6.78;;;;;;;7.93;64.69;98907.22;10345874;28;20056;-61
2022/12/30 15:51:57;;;;;;;14.52;7.47;;;;;;;8.04;64.63;98894.31;10343202;28;20045;-61
2022/12/30 15:57:03;;;;;;;5.30;2.05;;;;;;;7.98;65.41;98894.72;10336826;28;20060;-61
2022/12/30 16:02:12;;;;;;;5.85;2.35;;;;;;;8.08;65.30;98901.94;10341093;28;20064;-61
2022/12/30 16:07:29;;;;;;;6.35;2.22;;;;;;;8.19;65.28;98899.47;10340326;28;20415;-61
2022/12/30 16:12:49;;;;;;;5.18;2.42;;;;;;;8.19;65.70;98891.66;10340361;28;20050;-61
2022/12/30 16:17:55;;;;;;;3.25;2.00;;;;;;;8.10;66.04;98905.28;10338323;28;20481;-61
2022/12/30 16:23:03;;;;;;;5.13;2.28;;;;;;;8.11;66.23;98884.38;10341658;28;20049;-61
2022/12/30 16:28:32;;;;;;;3.38;1.90;;;;;;;8.05;66.51;98892.53;10333952;28;20056;-61
2022/12/30 16:33:34;;;;;;;5.22;2.20;;;;;;;8.13;66.20;98894.66;10331480;28;20513;-61
2022/12/30 16:38:43;;;;;;;3.42;1.88;;;;;;;8.26;66.08;98882.50;10341279;28;20209;-62
2022/12/30 16:43:45;;;;;;;3.60;1.85;;;;;;;8.36;65.82;98889.63;10337222;28;20053;-61
2022/12/30 16:48:46;;;;;;;3.17;1.70;;;;;;;8.48;65.63;98882.72;10336909;28;20061;-62
2022/12/30 16:53:48;;;;;;;5.03;2.33;;;;;;;8.50;65.62;98899.94;10341292;28;20038;-61
2022/12/30 16:58:50;;;;;;;3.10;1.70;;;;;;;8.54;65.95;98904.00;10337808;28;20045;-58
2022/12/30 17:03:52;;;;;;;3.63;1.63;;;;;;;8.62;66.08;98898.28;10330720;28;20060;-59
2022/12/30 17:08:53;;;;;;;3.47;1.30;;;;;;;8.71;66.13;98902.84;10335932;28;20509;-58
2022/12/30 17:13:55;;;;;;;2.55;1.40;;;;;;;8.74;66.38;98900.88;10338321;28;20049;-58
2022/12/30 17:18:58;;;;;;;3.03;1.50;;;;;;;8.84;66.30;98904.50;10340056;28;20506;-58
2022/12/30 17:24:01;;;;;;;2.70;1.25;;;;;;;8.81;66.71;98906.50;10339630;28;20518;-58
2022/12/30 17:29:03;;;;;;;2.35;1.33;;;;;;;8.97;66.30;98903.66;10341489;28;20126;-59
2022/12/30 17:34:05;;;;;;;2.47;1.40;;;;;;;9.03;66.23;98905.84;10342285;28;20054;-59
2022/12/30 17:39:06;;;;;;;2.17;1.20;;;;;;;9.04;66.53;98899.69;10339469;28;20505;-58
2022/12/30 17:44:10;;;;;;;1.52;1.20;;;;;;;9.05;66.57;98902.19;10338257;28;20045;-58
2022/12/30 17:49:11;;;;;;;2.83;1.40;;;;;;;9.19;66.58;98890.78;10344847;28;20069;-58
2022/12/30 17:54:13;;;;;;;2.90;1.45;;;;;;;9.23;66.47;98903.50;10347234;28;20054;-58
2022/12/30 17:59:15;;;;;;;2.78;1.60;;;;;;;9.36;66.25;98909.53;10339668;28;20655;-58
2022/12/30 18:04:16;;;;;;;2.13;1.40;;;;;;;9.39;66.44;98906.72;10344657;28;20064;-58
2022/12/30 18:09:18;;;;;;;2.03;1.30;;;;;;;9.38;66.72;98912.03;10340380;28;20058;-59
2022/12/30 18:14:22;;;;;;;3.13;1.40;;;;;;;9.37;67.07;98918.19;10343096;28;20068;-58
2022/12/30 18:19:24;;;;;;;2.03;1.40;;;;;;;9.44;66.63;98927.25;10342792;28;20343;-59
2022/12/30 18:24:26;;;;;;;6.43;1.20;;;;;;;9.50;67.00;98925.03;10346030;28;20044;-60
2022/12/30 18:29:28;;;;;;;1.48;1.05;;;;;;;9.51;67.22;98921.50;10346272;28;20050;-60
2022/12/30 18:34:30;;;;;;;1.45;1.00;;;;;;;9.62;67.12;98937.22;10349976;28;20052;-60
2022/12/30 18:39:33;;;;;;;1.50;1.10;;;;;;;9.58;67.34;98935.75;10342152;28;20235;-60
2022/12/30 18:44:34;;;;;;;2.30;1.27;;;;;;;9.73;67.33;98946.09;10341256;28;20046;-60
2022/12/30 18:49:36;;;;;;;0.93;0.80;;;;;;;9.78;67.56;98949.19;10339825;28;20449;-60
2022/12/30 18:54:38;;;;;;;1.27;1.00;;;;;;;9.89;67.21;98957.09;10342318;28;20054;-60
2022/12/30 18:59:41;;;;;;;0.98;0.88;;;;;;;9.97;67.50;98957.38;10341286;28;20089;-60
2022/12/30 19:04:42;;;;;;;1.35;1.05;;;;;;;10.06;67.38;98964.53;10344541;28;20633;-60
2022/12/30 19:09:44;;;;;;;2.67;1.10;;;;;;;10.11;67.30;98967.66;10340754;28;20085;-60
2022/12/30 19:14:46;;;;;;;1.00;0.90;;;;;;;10.15;67.18;98951.66;10342452;28;20414;-60
2022/12/30 19:19:48;;;;;;;1.98;1.00;;;;;;;10.21;67.31;98952.97;10343791;28;20041;-60
2022/12/30 19:24:49;;;;;;;1.35;1.08;;;;;;;10.24;67.50;98966.66;10345041;28;20056;-60
2022/12/30 19:29:51;;;;;;;2.03;1.20;;;;;;;10.20;68.84;98959.97;10344191;28;20054;-60
2022/12/30 19:34:53;;;;;;;2.53;1.10;;;;;;;10.35;67.90;98958.84;10345390;28;20060;-60
2022/12/30 19:39:54;;;;;;;1.42;1.00;;;;;;;10.44;68.13;98970.38;10338749;28;20383;-60
2022/12/30 19:44:56;;;;;;;2.22;1.05;;;;;;;10.56;67.86;98972.13;10342657;28;20529;-60
2022/12/30 19:49:58;;;;;;;1.50;0.90;;;;;;;10.67;67.88;98971.28;10339109;28;20057;-60
2022/12/30 19:55:06;;;;;;;0.80;0.80;;;;;;;10.73;68.33;98973.44;10341052;28;20514;-61
2022/12/30 20:00:09;;;;;;;2.00;1.02;;;;;;;10.83;68.09;98975.25;10344945;28;20053;-60
2022/12/30 20:05:11;;;;;;;1.85;1.00;;;;;;;10.88;68.22;98986.22;10344415;28;20046;-60
2022/12/30 20:10:13;;;;;;;2.22;0.90;;;;;;;10.89;68.67;98994.91;10341684;28;20057;-60
2022/12/30 20:15:39;;;;;;;1.73;0.80;;;;;;;11.03;68.37;98997.31;10344690;28;20042;-60
2022/12/30 20:20:49;;;;;;;0.98;0.80;;;;;;;11.12;68.07;98991.38;10341325;28;20485;-60
2022/12/30 20:25:50;;;;;;;0.90;0.60;;;;;;;11.17;68.08;98990.06;10337590;28;20426;-60
2022/12/30 20:30:52;;;;;;;0.90;0.80;;;;;;;11.25;67.75;98984.25;10341459;28;20501;-60
2022/12/30 20:35:54;;;;;;;0.77;0.75;;;;;;;11.30;68.12;98996.03;10340730;28;20227;-60
2022/12/30 20:41:04;;;;;;;0.50;0.50;;;;;;;11.34;68.14;99001.03;10343627;28;20066;-60
2022/12/30 20:46:15;;;;;;;0.60;0.60;;;;;;;11.35;68.00;99013.16;10341848;28;20048;-60
2022/12/30 20:51:21;;;;;;;3.15;0.60;;;;;;;11.38;68.33;99028.66;10339144;28;20089;-60
2022/12/30 20:56:25;;;;;;;0.70;0.70;;;;;;;11.47;67.88;99023.53;10341939;28;20422;-60
2022/12/30 21:01:27;;;;;;;1.98;0.82;;;;;;;11.55;67.91;99022.91;10340202;28;20519;-61
2022/12/30 21:06:29;;;;;;;0.73;0.65;;;;;;;11.56;67.90;99027.22;10341412;28;20795;-60
2022/12/30 21:11:32;;;;;;;0.70;0.60;;;;;;;11.65;67.53;99037.81;10337989;28;20108;-60
2022/12/30 21:16:34;;;;;;;0.77;0.60;;;;;;;11.66;67.80;99043.88;10339643;28;21153;-60
2022/12/30 21:21:36;;;;;;;0.75;0.70;;;;;;;11.70;67.73;99053.97;10337631;28;20053;-60
2022/12/30 21:26:38;;;;;;;2.22;0.70;;;;;;;11.84;67.34;99053.75;10347797;28;20546;-60
2022/12/30 21:31:40;;;;;;;0.88;0.80;;;;;;;11.92;67.44;99058.38;10347966;28;20049;-60
2022/12/30 21:36:44;;;;;;;0.52;0.52;;;;;;;11.95;67.46;99069.44;10348773;28;20076;-60
2022/12/30 22:03:34;;;;;;;;;;;;;;;11.76;68.33;99092.81;10346543;28;20292;-60
2022/12/30 22:08:35;;;;;;;0.70;0.63;;;;;;;12.05;67.79;99087.88;10331120;28;19955;-60
2022/12/30 22:13:38;;;;;;;0.60;0.60;;;;;;;12.12;67.83;99100.41;10343693;28;20053;-60
2022/12/30 22:18:45;;;;;;;0.52;0.50;;;;;;;12.18;67.85;99116.59;10335943;28;20072;-60
2022/12/30 22:23:47;;;;;;;1.13;0.68;;;;;;;12.20;67.79;99126.00;10342190;28;20050;-60
2022/12/30 22:28:49;;;;;;;0.70;0.40;;;;;;;12.18;67.99;99134.94;10347913;28;20057;-60
2022/12/30 22:33:50;;;;;;;0.60;0.60;;;;;;;12.24;68.00;99127.44;10346080;28;20314;-60
2022/12/30 22:38:52;;;;;;;0.93;0.45;;;;;;;12.34;67.99;99125.78;10345529;28;20049;-60
2022/12/30 22:43:53;;;;;;;1.15;0.50;;;;;;;12.43;67.63;99125.06;10343098;28;20046;-60
2022/12/30 22:48:55;;;;;;;0.68;0.60;;;;;;;12.46;67.71;99119.56;10343528;28;20550;-60
2022/12/30 22:53:57;;;;;;;0.32;0.32;;;;;;;12.49;67.63;99118.47;10346496;28;20050;-60
2022/12/30 22:58:58;;;;;;;1.20;0.57;;;;;;;12.46;67.97;99123.94;10344245;28;20065;-60
2022/12/30 23:04:00;;;;;;;0.47;0.47;;;;;;;12.52;67.85;99140.03;10344108;28;20060;-60
2022/12/30 23:09:02;;;;;;;0.65;0.52;;;;;;;12.53;67.95;99120.75;10342032;28;20052;-59
2022/12/30 23:19:24;;;;;;;0.90;0.80;;;;;;;12.55;68.06;99123.22;10340631;28;20044;-59
2022/12/30 23:29:46;;;;;;;2.60;1.00;;;;;;;12.79;67.86;99137.81;10342274;28;20058;-59
2022/12/30 23:34:48;;;;;;;1.15;0.85;;;;;;;12.90;67.57;99143.00;10341700;28;21217;-60
2022/12/30 23:39:49;;;;;;;4.55;1.05;;;;;;;12.93;67.48;99142.78;10340905;28;20049;-59
2022/12/30 23:44:51;;;;;;;2.42;0.80;;;;;;;12.81;67.52;99148.19;10341465;28;20473;-60
2022/12/30 23:49:53;;;;;;;1.17;0.70;;;;;;;12.85;67.33;99171.44;10342382;28;20414;-60
2022/12/30 23:54:54;;;;;;;1.60;0.75;;;;;;;12.87;67.35;99166.91;10344517;28;20053;-59
2022/12/30 23:59:56;;;;;;;1.33;0.82;;;;;;;12.83;67.65;99148.91;10341153;28;20153;-60
